sensor_id;sensor_type;location;lat;lon;timestamp;P1;durP1;ratioP1;P2;durP2;ratioP2
81154;SDS011;70631;50.436;7.826;2023-11-22T00:04:51;3.10;;;2.17;;
81154;SDS011;70631;50.436;7.826;2023-11-22T00:07:17;3.90;;;2.37;;
81154;SDS011;70631;50.436;7.826;2023-11-22T00:12:07;5.90;;;2.17;;
81154;SDS011;70631;50.436;7.826;2023-11-22T00:16:59;3.25;;;2.40;;
81154;SDS011;70631;50.436;7.826;2023-11-22T00:19:26;6.25;;;2.85;;
81154;SDS011;70631;50.436;7.826;2023-11-22T00:21:51;4.07;;;2.97;;
81154;SDS011;70631;50.436;7.826;2023-11-22T00:26:43;3.80;;;2.53;;
81154;SDS011;70631;50.436;7.826;2023-11-22T00:29:08;3.43;;;2.57;;
81154;SDS011;70631;50.436;7.826;2023-11-22T00:31:34;3.40;;;2.60;;
81154;SDS011;70631;50.436;7.826;2023-11-22T00:36:24;4.10;;;3.10;;
81154;SDS011;70631;50.436;7.826;2023-11-22T00:38:49;7.13;;;2.90;;
81154;SDS011;70631;50.436;7.826;2023-11-22T00:43:40;3.85;;;2.40;;
81154;SDS011;70631;50.436;7.826;2023-11-22T00:48:31;3.63;;;2.60;;
81154;SDS011;70631;50.436;7.826;2023-11-22T00:53:22;5.07;;;3.23;;
81154;SDS011;70631;50.436;7.826;2023-11-22T00:58:13;3.57;;;2.83;;
81154;SDS011;70631;50.436;7.826;2023-11-22T01:03:03;3.97;;;3.17;;
81154;SDS011;70631;50.436;7.826;2023-11-22T01:05:30;5.97;;;2.83;;
81154;SDS011;70631;50.436;7.826;2023-11-22T01:07:55;5.30;;;3.63;;
81154;SDS011;70631;50.436;7.826;2023-11-22T01:12:45;4.83;;;2.87;;
81154;SDS011;70631;50.436;7.826;2023-11-22T01:17:36;4.10;;;3.23;;
81154;SDS011;70631;50.436;7.826;2023-11-22T01:20:02;4.78;;;3.70;;
81154;SDS011;70631;50.436;7.826;2023-11-22T01:22:28;5.70;;;3.65;;
81154;SDS011;70631;50.436;7.826;2023-11-22T01:24:53;4.20;;;3.37;;
81154;SDS011;70631;50.436;7.826;2023-11-22T01:29:44;8.27;;;3.50;;
81154;SDS011;70631;50.436;7.826;2023-11-22T01:34:34;7.43;;;3.53;;
81154;SDS011;70631;50.436;7.826;2023-11-22T01:39:25;3.87;;;3.33;;
81154;SDS011;70631;50.436;7.826;2023-11-22T01:44:16;4.10;;;2.92;;
81154;SDS011;70631;50.436;7.826;2023-11-22T01:46:43;4.75;;;3.67;;
81154;SDS011;70631;50.436;7.826;2023-11-22T01:49:09;6.18;;;3.50;;
81154;SDS011;70631;50.436;7.826;2023-11-22T01:51:34;4.43;;;3.72;;
81154;SDS011;70631;50.436;7.826;2023-11-22T01:54:00;4.88;;;3.15;;
81154;SDS011;70631;50.436;7.826;2023-11-22T01:58:52;4.32;;;3.28;;
81154;SDS011;70631;50.436;7.826;2023-11-22T02:01:19;4.88;;;3.20;;
81154;SDS011;70631;50.436;7.826;2023-11-22T02:03:45;5.40;;;3.85;;
81154;SDS011;70631;50.436;7.826;2023-11-22T02:06:12;5.30;;;3.22;;
81154;SDS011;70631;50.436;7.826;2023-11-22T02:08:41;5.60;;;3.58;;
81154;SDS011;70631;50.436;7.826;2023-11-22T02:11:06;5.73;;;3.47;;
81154;SDS011;70631;50.436;7.826;2023-11-22T02:15:57;5.93;;;3.10;;
81154;SDS011;70631;50.436;7.826;2023-11-22T02:18:24;3.72;;;2.97;;
81154;SDS011;70631;50.436;7.826;2023-11-22T02:20:50;3.08;;;1.95;;
81154;SDS011;70631;50.436;7.826;2023-11-22T02:23:16;3.63;;;3.13;;
81154;SDS011;70631;50.436;7.826;2023-11-22T02:25:42;4.78;;;2.60;;
81154;SDS011;70631;50.436;7.826;2023-11-22T02:28:07;4.15;;;3.25;;
81154;SDS011;70631;50.436;7.826;2023-11-22T02:30:33;4.25;;;3.55;;
81154;SDS011;70631;50.436;7.826;2023-11-22T02:35:24;4.33;;;3.20;;
81154;SDS011;70631;50.436;7.826;2023-11-22T02:42:45;4.32;;;2.95;;
81154;SDS011;70631;50.436;7.826;2023-11-22T02:45:11;4.35;;;3.17;;
81154;SDS011;70631;50.436;7.826;2023-11-22T02:47:39;3.28;;;2.30;;
81154;SDS011;70631;50.436;7.826;2023-11-22T02:50:04;1.40;;;1.30;;
81154;SDS011;70631;50.436;7.826;2023-11-22T02:54:56;4.03;;;2.13;;
81154;SDS011;70631;50.436;7.826;2023-11-22T02:59:46;1.50;;;1.10;;
81154;SDS011;70631;50.436;7.826;2023-11-22T03:02:12;1.40;;;1.10;;
81154;SDS011;70631;50.436;7.826;2023-11-22T03:07:03;1.88;;;0.80;;
81154;SDS011;70631;50.436;7.826;2023-11-22T03:09:28;2.05;;;1.30;;
81154;SDS011;70631;50.436;7.826;2023-11-22T03:14:19;1.70;;;0.98;;
81154;SDS011;70631;50.436;7.826;2023-11-22T03:16:46;2.28;;;1.20;;
81154;SDS011;70631;50.436;7.826;2023-11-22T03:19:12;1.35;;;1.20;;
81154;SDS011;70631;50.436;7.826;2023-11-22T03:21:38;2.70;;;1.50;;
81154;SDS011;70631;50.436;7.826;2023-11-22T03:24:04;2.08;;;1.73;;
81154;SDS011;70631;50.436;7.826;2023-11-22T03:28:55;1.50;;;1.40;;
81154;SDS011;70631;50.436;7.826;2023-11-22T03:33:46;1.33;;;1.17;;
81154;SDS011;70631;50.436;7.826;2023-11-22T03:38:37;1.97;;;1.50;;
81154;SDS011;70631;50.436;7.826;2023-11-22T03:41:02;2.10;;;1.37;;
81154;SDS011;70631;50.436;7.826;2023-11-22T03:45:52;2.20;;;1.37;;
81154;SDS011;70631;50.436;7.826;2023-11-22T03:50:43;2.23;;;1.40;;
81154;SDS011;70631;50.436;7.826;2023-11-22T03:53:08;4.10;;;1.60;;
81154;SDS011;70631;50.436;7.826;2023-11-22T03:57:58;3.83;;;1.50;;
81154;SDS011;70631;50.436;7.826;2023-11-22T04:02:49;2.73;;;1.53;;
81154;SDS011;70631;50.436;7.826;2023-11-22T04:07:40;2.90;;;1.85;;
81154;SDS011;70631;50.436;7.826;2023-11-22T04:10:06;2.88;;;1.60;;
81154;SDS011;70631;50.436;7.826;2023-11-22T04:14:57;1.63;;;1.20;;
81154;SDS011;70631;50.436;7.826;2023-11-22T04:17:22;1.63;;;1.30;;
81154;SDS011;70631;50.436;7.826;2023-11-22T04:22:13;2.57;;;1.80;;
81154;SDS011;70631;50.436;7.826;2023-11-22T04:27:04;2.80;;;1.45;;
81154;SDS011;70631;50.436;7.826;2023-11-22T04:31:54;2.67;;;1.60;;
81154;SDS011;70631;50.436;7.826;2023-11-22T04:36:45;2.17;;;1.57;;
81154;SDS011;70631;50.436;7.826;2023-11-22T04:39:11;2.42;;;1.38;;
81154;SDS011;70631;50.436;7.826;2023-11-22T04:41:38;2.22;;;1.50;;
81154;SDS011;70631;50.436;7.826;2023-11-22T04:46:29;1.88;;;1.60;;
81154;SDS011;70631;50.436;7.826;2023-11-22T04:51:19;2.43;;;1.90;;
81154;SDS011;70631;50.436;7.826;2023-11-22T04:56:10;3.73;;;1.50;;
81154;SDS011;70631;50.436;7.826;2023-11-22T05:01:00;2.28;;;1.30;;
81154;SDS011;70631;50.436;7.826;2023-11-22T05:05:51;2.40;;;1.33;;
81154;SDS011;70631;50.436;7.826;2023-11-22T05:10:42;2.57;;;1.57;;
81154;SDS011;70631;50.436;7.826;2023-11-22T05:15:32;1.63;;;1.10;;
81154;SDS011;70631;50.436;7.826;2023-11-22T05:17:59;1.13;;;1.02;;
81154;SDS011;70631;50.436;7.826;2023-11-22T05:22:49;2.70;;;1.50;;
81154;SDS011;70631;50.436;7.826;2023-11-22T05:25:14;3.23;;;1.53;;
81154;SDS011;70631;50.436;7.826;2023-11-22T05:27:40;1.50;;;1.10;;
81154;SDS011;70631;50.436;7.826;2023-11-22T05:32:31;1.67;;;1.10;;
81154;SDS011;70631;50.436;7.826;2023-11-22T05:37:21;2.23;;;1.10;;
81154;SDS011;70631;50.436;7.826;2023-11-22T05:39:47;2.67;;;1.23;;
81154;SDS011;70631;50.436;7.826;2023-11-22T05:42:12;2.37;;;1.00;;
81154;SDS011;70631;50.436;7.826;2023-11-22T05:44:37;5.30;;;1.90;;
81154;SDS011;70631;50.436;7.826;2023-11-22T05:47:02;1.33;;;1.00;;
81154;SDS011;70631;50.436;7.826;2023-11-22T05:49:28;3.60;;;1.20;;
81154;SDS011;70631;50.436;7.826;2023-11-22T05:54:18;3.43;;;1.83;;
81154;SDS011;70631;50.436;7.826;2023-11-22T05:59:09;2.40;;;1.13;;
81154;SDS011;70631;50.436;7.826;2023-11-22T06:01:34;4.77;;;2.23;;
81154;SDS011;70631;50.436;7.826;2023-11-22T06:04:00;3.17;;;2.37;;
81154;SDS011;70631;50.436;7.826;2023-11-22T06:06:25;4.13;;;3.17;;
81154;SDS011;70631;50.436;7.826;2023-11-22T06:08:50;4.53;;;2.90;;
81154;SDS011;70631;50.436;7.826;2023-11-22T06:11:15;6.17;;;5.57;;
81154;SDS011;70631;50.436;7.826;2023-11-22T06:13:41;5.23;;;2.60;;
81154;SDS011;70631;50.436;7.826;2023-11-22T06:16:10;2.80;;;2.42;;
81154;SDS011;70631;50.436;7.826;2023-11-22T06:18:36;3.37;;;3.07;;
81154;SDS011;70631;50.436;7.826;2023-11-22T06:21:05;4.22;;;3.78;;
81154;SDS011;70631;50.436;7.826;2023-11-22T06:23:31;3.75;;;3.05;;
81154;SDS011;70631;50.436;7.826;2023-11-22T06:28:21;5.60;;;4.37;;
81154;SDS011;70631;50.436;7.826;2023-11-22T06:30:47;2.28;;;2.00;;
81154;SDS011;70631;50.436;7.826;2023-11-22T06:33:12;1.97;;;1.57;;
81154;SDS011;70631;50.436;7.826;2023-11-22T06:35:38;2.13;;;1.83;;
81154;SDS011;70631;50.436;7.826;2023-11-22T06:38:03;2.23;;;1.27;;
81154;SDS011;70631;50.436;7.826;2023-11-22T06:40:28;1.97;;;1.77;;
81154;SDS011;70631;50.436;7.826;2023-11-22T06:42:54;3.90;;;3.05;;
81154;SDS011;70631;50.436;7.826;2023-11-22T06:45:20;3.65;;;2.33;;
81154;SDS011;70631;50.436;7.826;2023-11-22T06:47:46;3.05;;;1.80;;
81154;SDS011;70631;50.436;7.826;2023-11-22T06:50:11;5.32;;;1.70;;
81154;SDS011;70631;50.436;7.826;2023-11-22T06:52:37;2.15;;;1.60;;
81154;SDS011;70631;50.436;7.826;2023-11-22T06:55:07;3.17;;;2.38;;
81154;SDS011;70631;50.436;7.826;2023-11-22T06:57:33;3.72;;;3.08;;
81154;SDS011;70631;50.436;7.826;2023-11-22T07:00:02;4.30;;;2.97;;
81154;SDS011;70631;50.436;7.826;2023-11-22T07:02:30;4.50;;;2.05;;
81154;SDS011;70631;50.436;7.826;2023-11-22T07:04:58;4.40;;;2.60;;
81154;SDS011;70631;50.436;7.826;2023-11-22T07:07:26;4.18;;;2.50;;
81154;SDS011;70631;50.436;7.826;2023-11-22T07:09:51;3.30;;;1.70;;
81154;SDS011;70631;50.436;7.826;2023-11-22T07:12:17;2.47;;;2.27;;
81154;SDS011;70631;50.436;7.826;2023-11-22T07:14:44;6.85;;;2.63;;
81154;SDS011;70631;50.436;7.826;2023-11-22T07:17:09;3.28;;;2.22;;
81154;SDS011;70631;50.436;7.826;2023-11-22T07:19:35;4.15;;;2.67;;
81154;SDS011;70631;50.436;7.826;2023-11-22T07:22:03;6.05;;;4.15;;
81154;SDS011;70631;50.436;7.826;2023-11-22T07:24:29;2.92;;;2.72;;
81154;SDS011;70631;50.436;7.826;2023-11-22T07:26:59;4.57;;;2.97;;
81154;SDS011;70631;50.436;7.826;2023-11-22T07:29:25;5.80;;;2.63;;
81154;SDS011;70631;50.436;7.826;2023-11-22T07:31:51;4.90;;;2.33;;
81154;SDS011;70631;50.436;7.826;2023-11-22T07:34:16;3.83;;;2.00;;
81154;SDS011;70631;50.436;7.826;2023-11-22T07:36:43;3.85;;;2.10;;
81154;SDS011;70631;50.436;7.826;2023-11-22T07:39:09;2.65;;;1.65;;
81154;SDS011;70631;50.436;7.826;2023-11-22T07:41:36;3.70;;;2.08;;
81154;SDS011;70631;50.436;7.826;2023-11-22T07:44:02;4.17;;;2.33;;
81154;SDS011;70631;50.436;7.826;2023-11-22T07:46:27;4.70;;;2.25;;
81154;SDS011;70631;50.436;7.826;2023-11-22T07:48:52;7.60;;;3.30;;
81154;SDS011;70631;50.436;7.826;2023-11-22T07:51:18;2.83;;;1.70;;
81154;SDS011;70631;50.436;7.826;2023-11-22T07:53:43;1.97;;;1.23;;
81154;SDS011;70631;50.436;7.826;2023-11-22T07:56:08;4.40;;;1.90;;
81154;SDS011;70631;50.436;7.826;2023-11-22T07:58:34;3.40;;;1.60;;
81154;SDS011;70631;50.436;7.826;2023-11-22T08:01:00;3.60;;;1.35;;
81154;SDS011;70631;50.436;7.826;2023-11-22T08:03:30;1.73;;;1.13;;
81154;SDS011;70631;50.436;7.826;2023-11-22T08:05:55;1.88;;;1.25;;
81154;SDS011;70631;50.436;7.826;2023-11-22T08:08:21;4.68;;;1.75;;
81154;SDS011;70631;50.436;7.826;2023-11-22T08:10:47;3.05;;;1.63;;
81154;SDS011;70631;50.436;7.826;2023-11-22T08:13:13;1.55;;;1.00;;
81154;SDS011;70631;50.436;7.826;2023-11-22T08:15:40;1.67;;;0.93;;
81154;SDS011;70631;50.436;7.826;2023-11-22T08:18:05;1.50;;;1.20;;
81154;SDS011;70631;50.436;7.826;2023-11-22T08:22:56;3.77;;;2.03;;
81154;SDS011;70631;50.436;7.826;2023-11-22T08:27:47;1.33;;;1.23;;
81154;SDS011;70631;50.436;7.826;2023-11-22T08:30:12;1.53;;;1.07;;
81154;SDS011;70631;50.436;7.826;2023-11-22T08:32:41;2.22;;;1.38;;
81154;SDS011;70631;50.436;7.826;2023-11-22T08:35:16;3.13;;;1.67;;
81154;SDS011;70631;50.436;7.826;2023-11-22T08:40:07;3.10;;;1.50;;
81154;SDS011;70631;50.436;7.826;2023-11-22T08:42:34;2.65;;;1.58;;
81154;SDS011;70631;50.436;7.826;2023-11-22T08:47:26;2.70;;;1.40;;
81154;SDS011;70631;50.436;7.826;2023-11-22T08:52:16;2.93;;;1.23;;
81154;SDS011;70631;50.436;7.826;2023-11-22T08:57:07;4.77;;;1.33;;
81154;SDS011;70631;50.436;7.826;2023-11-22T09:02:02;2.25;;;2.00;;
81154;SDS011;70631;50.436;7.826;2023-11-22T09:04:28;1.95;;;1.40;;
81154;SDS011;70631;50.436;7.826;2023-11-22T09:06:54;1.20;;;0.98;;
81154;SDS011;70631;50.436;7.826;2023-11-22T09:09:21;1.67;;;1.00;;
81154;SDS011;70631;50.436;7.826;2023-11-22T09:11:52;2.97;;;1.30;;
81154;SDS011;70631;50.436;7.826;2023-11-22T09:14:17;1.33;;;1.17;;
81154;SDS011;70631;50.436;7.826;2023-11-22T09:16:44;1.88;;;1.45;;
81154;SDS011;70631;50.436;7.826;2023-11-22T09:19:10;1.73;;;1.27;;
81154;SDS011;70631;50.436;7.826;2023-11-22T09:21:36;2.20;;;1.25;;
81154;SDS011;70631;50.436;7.826;2023-11-22T09:24:01;2.00;;;1.37;;
81154;SDS011;70631;50.436;7.826;2023-11-22T09:26:30;2.33;;;1.45;;
81154;SDS011;70631;50.436;7.826;2023-11-22T09:28:56;3.23;;;1.57;;
81154;SDS011;70631;50.436;7.826;2023-11-22T09:31:21;2.38;;;1.60;;
81154;SDS011;70631;50.436;7.826;2023-11-22T09:33:46;3.57;;;1.77;;
81154;SDS011;70631;50.436;7.826;2023-11-22T09:36:12;2.47;;;1.30;;
81154;SDS011;70631;50.436;7.826;2023-11-22T09:38:38;1.95;;;1.35;;
81154;SDS011;70631;50.436;7.826;2023-11-22T09:41:03;2.03;;;0.82;;
81154;SDS011;70631;50.436;7.826;2023-11-22T09:43:29;1.75;;;1.10;;
81154;SDS011;70631;50.436;7.826;2023-11-22T09:45:54;2.57;;;1.23;;
81154;SDS011;70631;50.436;7.826;2023-11-22T09:48:23;2.85;;;1.33;;
81154;SDS011;70631;50.436;7.826;2023-11-22T09:56:01;1.92;;;1.48;;
81154;SDS011;70631;50.436;7.826;2023-11-22T09:58:31;2.00;;;1.40;;
81154;SDS011;70631;50.436;7.826;2023-11-22T10:00:59;2.08;;;1.75;;
81154;SDS011;70631;50.436;7.826;2023-11-22T10:03:28;2.83;;;1.90;;
81154;SDS011;70631;50.436;7.826;2023-11-22T10:05:57;2.78;;;1.42;;
81154;SDS011;70631;50.436;7.826;2023-11-22T10:08:25;5.47;;;2.33;;
81154;SDS011;70631;50.436;7.826;2023-11-22T10:10:52;3.47;;;1.95;;
81154;SDS011;70631;50.436;7.826;2023-11-22T10:13:19;4.30;;;2.20;;
81154;SDS011;70631;50.436;7.826;2023-11-22T10:15:45;2.30;;;1.33;;
81154;SDS011;70631;50.436;7.826;2023-11-22T10:18:14;1.70;;;1.10;;
81154;SDS011;70631;50.436;7.826;2023-11-22T10:20:40;3.05;;;1.95;;
81154;SDS011;70631;50.436;7.826;2023-11-22T10:23:10;3.95;;;1.75;;
81154;SDS011;70631;50.436;7.826;2023-11-22T10:25:45;3.13;;;2.30;;
81154;SDS011;70631;50.436;7.826;2023-11-22T10:28:16;4.93;;;2.00;;
81154;SDS011;70631;50.436;7.826;2023-11-22T10:30:45;2.83;;;2.08;;
81154;SDS011;70631;50.436;7.826;2023-11-22T10:33:12;3.42;;;1.90;;
81154;SDS011;70631;50.436;7.826;2023-11-22T10:35:47;2.40;;;1.77;;
81154;SDS011;70631;50.436;7.826;2023-11-22T10:38:13;2.10;;;1.75;;
81154;SDS011;70631;50.436;7.826;2023-11-22T10:40:40;4.45;;;1.83;;
81154;SDS011;70631;50.436;7.826;2023-11-22T10:43:06;3.05;;;2.13;;
81154;SDS011;70631;50.436;7.826;2023-11-22T10:45:33;6.38;;;2.22;;
81154;SDS011;70631;50.436;7.826;2023-11-22T10:48:00;3.40;;;1.50;;
81154;SDS011;70631;50.436;7.826;2023-11-22T10:50:26;3.00;;;1.60;;
81154;SDS011;70631;50.436;7.826;2023-11-22T10:52:52;2.45;;;1.50;;
81154;SDS011;70631;50.436;7.826;2023-11-22T10:55:22;2.10;;;1.63;;
81154;SDS011;70631;50.436;7.826;2023-11-22T10:57:51;4.07;;;2.15;;
81154;SDS011;70631;50.436;7.826;2023-11-22T11:00:21;4.32;;;1.80;;
81154;SDS011;70631;50.436;7.826;2023-11-22T11:02:50;3.17;;;1.98;;
81154;SDS011;70631;50.436;7.826;2023-11-22T11:05:20;2.88;;;1.90;;
81154;SDS011;70631;50.436;7.826;2023-11-22T11:08:04;3.40;;;1.80;;
81154;SDS011;70631;50.436;7.826;2023-11-22T11:10:42;3.90;;;2.22;;
81154;SDS011;70631;50.436;7.826;2023-11-22T11:13:09;5.25;;;2.20;;
81154;SDS011;70631;50.436;7.826;2023-11-22T11:15:36;2.53;;;1.85;;
81154;SDS011;70631;50.436;7.826;2023-11-22T11:18:05;4.32;;;2.50;;
81154;SDS011;70631;50.436;7.826;2023-11-22T11:20:32;2.80;;;1.88;;
81154;SDS011;70631;50.436;7.826;2023-11-22T11:23:11;2.35;;;1.98;;
81154;SDS011;70631;50.436;7.826;2023-11-22T11:25:37;3.33;;;2.33;;
81154;SDS011;70631;50.436;7.826;2023-11-22T11:28:03;5.70;;;2.08;;
81154;SDS011;70631;50.436;7.826;2023-11-22T11:30:41;2.40;;;1.50;;
81154;SDS011;70631;50.436;7.826;2023-11-22T11:33:11;3.08;;;2.03;;
81154;SDS011;70631;50.436;7.826;2023-11-22T11:35:47;4.97;;;2.08;;
81154;SDS011;70631;50.436;7.826;2023-11-22T11:38:14;2.88;;;1.77;;
81154;SDS011;70631;50.436;7.826;2023-11-22T11:40:42;2.05;;;1.40;;
81154;SDS011;70631;50.436;7.826;2023-11-22T11:43:08;2.53;;;1.70;;
81154;SDS011;70631;50.436;7.826;2023-11-22T11:45:38;4.78;;;2.15;;
81154;SDS011;70631;50.436;7.826;2023-11-22T11:48:10;3.30;;;2.10;;
81154;SDS011;70631;50.436;7.826;2023-11-22T11:50:40;3.47;;;2.22;;
81154;SDS011;70631;50.436;7.826;2023-11-22T11:53:06;2.47;;;2.03;;
81154;SDS011;70631;50.436;7.826;2023-11-22T11:55:31;9.57;;;6.70;;
81154;SDS011;70631;50.436;7.826;2023-11-22T11:57:57;4.80;;;2.33;;
81154;SDS011;70631;50.436;7.826;2023-11-22T12:02:54;4.13;;;2.20;;
81154;SDS011;70631;50.436;7.826;2023-11-22T12:05:19;12.13;;;5.27;;
81154;SDS011;70631;50.436;7.826;2023-11-22T12:07:45;2.42;;;1.75;;
81154;SDS011;70631;50.436;7.826;2023-11-22T12:10:11;3.13;;;1.98;;
81154;SDS011;70631;50.436;7.826;2023-11-22T12:12:36;2.80;;;2.30;;
81154;SDS011;70631;50.436;7.826;2023-11-22T12:15:02;4.85;;;2.40;;
81154;SDS011;70631;50.436;7.826;2023-11-22T12:17:28;2.75;;;2.22;;
81154;SDS011;70631;50.436;7.826;2023-11-22T12:19:53;3.10;;;2.50;;
81154;SDS011;70631;50.436;7.826;2023-11-22T12:22:34;5.07;;;2.47;;
81154;SDS011;70631;50.436;7.826;2023-11-22T12:25:00;4.05;;;2.03;;
81154;SDS011;70631;50.436;7.826;2023-11-22T12:27:25;7.70;;;2.42;;
81154;SDS011;70631;50.436;7.826;2023-11-22T12:29:51;2.57;;;1.70;;
81154;SDS011;70631;50.436;7.826;2023-11-22T12:32:16;3.75;;;1.60;;
81154;SDS011;70631;50.436;7.826;2023-11-22T12:34:43;7.30;;;3.10;;
81154;SDS011;70631;50.436;7.826;2023-11-22T12:37:08;2.97;;;2.22;;
81154;SDS011;70631;50.436;7.826;2023-11-22T12:39:35;3.85;;;1.90;;
81154;SDS011;70631;50.436;7.826;2023-11-22T12:42:01;4.10;;;2.20;;
81154;SDS011;70631;50.436;7.826;2023-11-22T12:44:28;2.63;;;1.95;;
81154;SDS011;70631;50.436;7.826;2023-11-22T12:46:53;5.47;;;3.00;;
81154;SDS011;70631;50.436;7.826;2023-11-22T12:49:23;3.92;;;2.92;;
81154;SDS011;70631;50.436;7.826;2023-11-22T12:51:49;4.53;;;2.40;;
81154;SDS011;70631;50.436;7.826;2023-11-22T12:54:17;3.50;;;1.92;;
81154;SDS011;70631;50.436;7.826;2023-11-22T12:56:45;6.22;;;2.00;;
81154;SDS011;70631;50.436;7.826;2023-11-22T12:59:10;4.38;;;2.17;;
81154;SDS011;70631;50.436;7.826;2023-11-22T13:01:35;3.30;;;1.92;;
81154;SDS011;70631;50.436;7.826;2023-11-22T13:04:01;2.28;;;1.58;;
81154;SDS011;70631;50.436;7.826;2023-11-22T13:06:26;6.77;;;2.77;;
81154;SDS011;70631;50.436;7.826;2023-11-22T13:08:51;2.22;;;1.80;;
81154;SDS011;70631;50.436;7.826;2023-11-22T13:11:18;6.43;;;2.10;;
81154;SDS011;70631;50.436;7.826;2023-11-22T13:13:44;3.38;;;2.13;;
81154;SDS011;70631;50.436;7.826;2023-11-22T13:16:10;3.75;;;2.17;;
81154;SDS011;70631;50.436;7.826;2023-11-22T13:18:35;3.17;;;1.93;;
81154;SDS011;70631;50.436;7.826;2023-11-22T13:21:02;3.05;;;2.20;;
81154;SDS011;70631;50.436;7.826;2023-11-22T13:23:27;4.88;;;2.35;;
81154;SDS011;70631;50.436;7.826;2023-11-22T13:28:18;4.03;;;1.27;;
81154;SDS011;70631;50.436;7.826;2023-11-22T13:33:09;2.67;;;1.73;;
81154;SDS011;70631;50.436;7.826;2023-11-22T13:38:03;5.82;;;2.30;;
81154;SDS011;70631;50.436;7.826;2023-11-22T13:40:32;3.03;;;1.80;;
81154;SDS011;70631;50.436;7.826;2023-11-22T13:42:58;3.50;;;2.13;;
81154;SDS011;70631;50.436;7.826;2023-11-22T13:45:24;4.47;;;1.92;;
81154;SDS011;70631;50.436;7.826;2023-11-22T13:47:51;3.20;;;2.05;;
81154;SDS011;70631;50.436;7.826;2023-11-22T13:50:28;2.50;;;1.75;;
81154;SDS011;70631;50.436;7.826;2023-11-22T13:52:54;2.73;;;2.20;;
81154;SDS011;70631;50.436;7.826;2023-11-22T13:55:21;4.05;;;2.28;;
81154;SDS011;70631;50.436;7.826;2023-11-22T13:57:52;3.33;;;2.22;;
81154;SDS011;70631;50.436;7.826;2023-11-22T14:00:20;5.63;;;2.65;;
81154;SDS011;70631;50.436;7.826;2023-11-22T14:02:50;2.78;;;1.80;;
81154;SDS011;70631;50.436;7.826;2023-11-22T14:05:17;4.75;;;2.20;;
81154;SDS011;70631;50.436;7.826;2023-11-22T14:07:43;3.92;;;2.50;;
81154;SDS011;70631;50.436;7.826;2023-11-22T14:12:35;2.67;;;1.90;;
81154;SDS011;70631;50.436;7.826;2023-11-22T14:15:02;2.70;;;2.08;;
81154;SDS011;70631;50.436;7.826;2023-11-22T14:17:30;2.85;;;1.40;;
81154;SDS011;70631;50.436;7.826;2023-11-22T14:19:56;2.90;;;1.73;;
81154;SDS011;70631;50.436;7.826;2023-11-22T14:24:47;5.10;;;1.88;;
81154;SDS011;70631;50.436;7.826;2023-11-22T14:27:19;3.13;;;2.25;;
81154;SDS011;70631;50.436;7.826;2023-11-22T14:29:48;3.42;;;2.28;;
81154;SDS011;70631;50.436;7.826;2023-11-22T14:32:15;3.20;;;2.03;;
81154;SDS011;70631;50.436;7.826;2023-11-22T14:34:41;3.25;;;1.95;;
81154;SDS011;70631;50.436;7.826;2023-11-22T14:37:08;5.40;;;3.20;;
81154;SDS011;70631;50.436;7.826;2023-11-22T14:39:34;4.38;;;2.00;;
81154;SDS011;70631;50.436;7.826;2023-11-22T14:44:25;2.08;;;1.90;;
81154;SDS011;70631;50.436;7.826;2023-11-22T14:49:15;5.13;;;2.87;;
81154;SDS011;70631;50.436;7.826;2023-11-22T14:54:06;4.93;;;2.43;;
81154;SDS011;70631;50.436;7.826;2023-11-22T14:58:56;2.60;;;1.90;;
81154;SDS011;70631;50.436;7.826;2023-11-22T15:03:48;3.47;;;1.92;;
81154;SDS011;70631;50.436;7.826;2023-11-22T15:08:39;5.88;;;3.08;;
81154;SDS011;70631;50.436;7.826;2023-11-22T15:13:32;3.80;;;2.97;;
81154;SDS011;70631;50.436;7.826;2023-11-22T15:18:23;3.73;;;2.50;;
81154;SDS011;70631;50.436;7.826;2023-11-22T15:20:49;3.17;;;1.90;;
81154;SDS011;70631;50.436;7.826;2023-11-22T15:25:40;4.33;;;2.70;;
81154;SDS011;70631;50.436;7.826;2023-11-22T15:28:06;7.13;;;2.72;;
81154;SDS011;70631;50.436;7.826;2023-11-22T15:30:34;3.35;;;2.10;;
81154;SDS011;70631;50.436;7.826;2023-11-22T15:35:24;3.60;;;2.13;;
81154;SDS011;70631;50.436;7.826;2023-11-22T15:37:50;3.95;;;2.50;;
81154;SDS011;70631;50.436;7.826;2023-11-22T15:42:41;3.80;;;2.40;;
81154;SDS011;70631;50.436;7.826;2023-11-22T15:47:32;3.60;;;1.67;;
81154;SDS011;70631;50.436;7.826;2023-11-22T15:52:23;3.67;;;2.20;;
81154;SDS011;70631;50.436;7.826;2023-11-22T15:57:14;7.03;;;2.63;;
81154;SDS011;70631;50.436;7.826;2023-11-22T16:02:05;3.37;;;2.40;;
81154;SDS011;70631;50.436;7.826;2023-11-22T16:04:31;4.80;;;2.50;;
81154;SDS011;70631;50.436;7.826;2023-11-22T16:09:22;5.23;;;3.23;;
81154;SDS011;70631;50.436;7.826;2023-11-22T16:14:13;3.03;;;2.40;;
81154;SDS011;70631;50.436;7.826;2023-11-22T16:16:40;6.90;;;2.95;;
81154;SDS011;70631;50.436;7.826;2023-11-22T16:19:06;3.88;;;2.28;;
81154;SDS011;70631;50.436;7.826;2023-11-22T16:23:58;5.13;;;3.13;;
81154;SDS011;70631;50.436;7.826;2023-11-22T16:28:49;3.97;;;2.87;;
81154;SDS011;70631;50.436;7.826;2023-11-22T16:33:40;5.38;;;3.17;;
81154;SDS011;70631;50.436;7.826;2023-11-22T16:38:31;4.72;;;3.47;;
81154;SDS011;70631;50.436;7.826;2023-11-22T16:43:23;7.68;;;4.10;;
81154;SDS011;70631;50.436;7.826;2023-11-22T16:48:15;7.53;;;4.82;;
81154;SDS011;70631;50.436;7.826;2023-11-22T16:53:06;9.17;;;5.23;;
81154;SDS011;70631;50.436;7.826;2023-11-22T16:55:33;4.25;;;3.28;;
81154;SDS011;70631;50.436;7.826;2023-11-22T17:00:25;4.78;;;3.05;;
81154;SDS011;70631;50.436;7.826;2023-11-22T17:02:51;5.63;;;3.80;;
81154;SDS011;70631;50.436;7.826;2023-11-22T17:05:23;8.40;;;4.35;;
81154;SDS011;70631;50.436;7.826;2023-11-22T17:10:15;4.70;;;3.17;;
81154;SDS011;70631;50.436;7.826;2023-11-22T17:15:06;5.37;;;3.30;;
81154;SDS011;70631;50.436;7.826;2023-11-22T17:19:57;3.33;;;2.60;;
81154;SDS011;70631;50.436;7.826;2023-11-22T17:24:49;5.93;;;3.42;;
81154;SDS011;70631;50.436;7.826;2023-11-22T17:29:40;7.20;;;3.17;;
81154;SDS011;70631;50.436;7.826;2023-11-22T17:34:32;6.85;;;3.30;;
